| time (UTC) | temp C | wind direction | speed KPH | gust KPH | rain 1hr cm | rain 24hr cm | rain mn cm | humidity % | barometer mb |
| 20260507134530 | 12 | 102 | 8.0 | 19.3 | 0.00 | 0.05 | 0.00 | 83 | 1019.4 |
| 20260507133028 | 12 | 59 | 9.7 | 19.3 | 0.00 | 0.05 | 0.00 | 84 | 1019.8 |
| 20260507131527 | 11 | 32 | 8.0 | 22.5 | 0.00 | 0.05 | 0.00 | 85 | 1019.4 |
| 20260507130026 | 11 | 44 | 11.3 | 22.5 | 0.00 | 0.05 | 0.00 | 85 | 1019.5 |
| 20260507124526 | 11 | 61 | 12.9 | 24.1 | 0.00 | 0.08 | 0.00 | 85 | 1019.5 |
| 20260507123026 | 11 | 59 | 6.4 | 20.9 | 0.00 | 0.08 | 0.00 | 86 | 1019.3 |
| 20260507121521 | 11 | 67 | 8.0 | 22.5 | 0.00 | 0.08 | 0.00 | 86 | 1019.0 |
| 20260507120019 | 11 | 43 | 16.1 | 30.6 | 0.00 | 0.08 | 0.00 | 85 | 1019.0 |
| 20260507114515 | 12 | 28 | 8.0 | 24.1 | 0.00 | 0.08 | 0.00 | 85 | 1018.9 |
| 20260507113021 | 12 | 63 | 11.3 | 25.7 | 0.00 | 0.08 | 0.00 | 85 | 1018.6 |
| 20260507111513 | 12 | 44 | 9.7 | 22.5 | 0.00 | 0.08 | 0.00 | 86 | 1018.5 |
| 20260507110009 | 12 | 24 | 11.3 | 22.5 | 0.00 | 0.08 | 0.00 | 85 | 1018.3 |
| 20260507104510 | 12 | 41 | 11.3 | 24.1 | 0.00 | 0.08 | 0.00 | 85 | 1018.1 |
| 20260507103008 | 12 | 43 | 11.3 | 24.1 | 0.00 | 0.08 | 0.00 | 84 | 1018.0 |
| 20260507101504 | 12 | 39 | 14.5 | 29.0 | 0.00 | 0.08 | 0.00 | 83 | 1018.0 |
| 20260507100003 | 12 | 24 | 12.9 | 25.7 | 0.00 | 0.08 | 0.00 | 83 | 1018.1 |
| 20260507094559 | 12 | 76 | 12.9 | 24.1 | 0.00 | 0.08 | 0.00 | 83 | 1018.0 |
| 20260507093056 | 12 | 31 | 12.9 | 20.9 | 0.00 | 0.08 | 0.00 | 83 | 1018.1 |
| 20260507091552 | 13 | 86 | 11.3 | 19.3 | 0.00 | 0.08 | 0.00 | 83 | 1017.8 |
| 20260507090050 | 13 | 51 | 4.8 | 17.7 | 0.00 | 0.08 | 0.00 | 83 | 1017.6 |
| 20260507084553 | 13 | 49 | 6.4 | 16.1 | 0.00 | 0.08 | 0.00 | 83 | 1017.4 |
| 20260507083050 | 13 | 71 | 6.4 | 16.1 | 0.00 | 0.08 | 0.00 | 83 | 1017.6 |
| 20260507081645 | 13 | 80 | 6.4 | 17.7 | 0.00 | 0.08 | 0.00 | 84 | 1017.1 |
| 20260507080100 | 13 | 61 | 4.8 | 16.1 | 0.00 | 0.08 | 0.00 | 84 | 1017.0 |
| 20260507074545 | 13 | 46 | 8.0 | 16.1 | 0.00 | 0.08 | 0.00 | 85 | 1016.8 |
| 20260507073040 | 13 | 57 | 6.4 | 11.3 | 0.00 | 0.08 | 0.00 | 88 | 1016.9 |
| 20260507071553 | 13 | 67 | 4.8 | 14.5 | 0.00 | 0.08 | 0.00 | 89 | 1016.3 |
| 20260507070036 | 13 | 54 | 4.8 | 14.5 | 0.00 | 0.08 | 0.00 | 89 | 1016.1 |
| 20260507064533 | 13 | 58 | 1.6 | 4.8 | 0.00 | 0.08 | 0.00 | 89 | 1016.1 |
| 20260507063035 | 13 | 57 | 3.2 | 8.0 | 0.00 | 0.08 | 0.00 | 89 | 1015.7 |
| 20260507061532 | 13 | 58 | 4.8 | 9.7 | 0.00 | 0.08 | 0.00 | 88 | 1015.5 |
| 20260507060030 | 13 | 66 | 1.6 | 6.4 | 0.00 | 0.08 | 0.00 | 88 | 1015.6 |
| 20260507054528 | 13 | 62 | 1.6 | 8.0 | 0.00 | 0.08 | 0.00 | 88 | 1015.6 |
| 20260507053027 | 13 | 65 | 1.6 | 8.0 | 0.00 | 0.08 | 0.00 | 87 | 1016.0 |
| 20260507051526 | 13 | 59 | 1.6 | 9.7 | 0.00 | 0.08 | 0.00 | 87 | 1015.5 |
| 20260507050022 | 13 | 63 | 4.8 | 9.7 | 0.00 | 0.08 | 0.00 | 86 | 1015.3 |
| 20260507044521 | 14 | 128 | 0.0 | 3.2 | 0.00 | 0.08 | 0.08 | 85 | 1015.2 |
| 20260507043024 | 15 | 128 | 0.0 | 4.8 | 0.00 | 0.08 | 0.08 | 85 | 1015.2 |
| 20260507041517 | 15 | 128 | 1.6 | 6.4 | 0.00 | 0.08 | 0.08 | 84 | 1014.8 |
| 20260507040016 | 15 | 128 | 1.6 | 4.8 | 0.00 | 0.08 | 0.08 | 83 | 1014.6 |
| 20260507034515 | 15 | 128 | 1.6 | 4.8 | 0.00 | 0.08 | 0.08 | 82 | 1014.3 |
| 20260507033012 | 15 | 128 | 3.2 | 6.4 | 0.00 | 0.08 | 0.08 | 81 | 1014.2 |
| 20260507031510 | 15 | 128 | 3.2 | 4.8 | 0.00 | 0.08 | 0.08 | 80 | 1013.9 |
| 20260507030011 | 16 | 128 | 1.6 | 6.4 | 0.00 | 0.08 | 0.08 | 79 | 1013.6 |
| 20260507024507 | 16 | 126 | 3.2 | 8.0 | 0.00 | 0.08 | 0.08 | 77 | 1013.5 |
| 20260507023007 | 16 | 113 | 1.6 | 9.7 | 0.00 | 0.08 | 0.08 | 76 | 1013.1 |
| 20260507021511 | 17 | 110 | 1.6 | 11.3 | 0.00 | 0.08 | 0.08 | 74 | 1012.8 |
| 20260507020007 | 17 | 90 | 3.2 | 11.3 | 0.00 | 0.08 | 0.08 | 72 | 1012.5 |
| 20260507014505 | 18 | 115 | 3.2 | 11.3 | 0.00 | 0.08 | 0.08 | 70 | 1012.6 |
| 20260507013005 | 18 | 71 | 3.2 | 9.7 | 0.00 | 0.08 | 0.08 | 68 | 1012.4 |
| 20260507011504 | 19 | 92 | 4.8 | 8.0 | 0.00 | 0.08 | 0.08 | 66 | 1012.3 |
| 20260507010004 | 20 | 69 | 4.8 | 16.1 | 0.00 | 0.08 | 0.08 | 62 | 1012.0 |
| 20260507004503 | 21 | 64 | 6.4 | 16.1 | 0.00 | 0.08 | 0.08 | 60 | 1011.9 |
| 20260507003005 | 21 | 72 | 8.0 | 16.1 | 0.00 | 0.08 | 0.08 | 60 | 1011.9 |
| 20260507001501 | 21 | 65 | 4.8 | 16.1 | 0.00 | 0.08 | 0.08 | 58 | 1011.6 |
| 20260507000002 | 22 | 36 | 8.0 | 17.7 | 0.00 | 0.08 | 0.08 | 56 | 1011.4 |
| 20260506234606 | 22 | 88 | 8.0 | 14.5 | 0.00 | 0.08 | 0.08 | 58 | 1011.5 |
| 20260506233059 | 22 | 55 | 6.4 | 16.1 | 0.00 | 0.08 | 0.08 | 57 | 1011.4 |
| 20260506231559 | 22 | 84 | 8.0 | 14.5 | 0.00 | 0.08 | 0.08 | 57 | 1011.5 |
| 20260506230059 | 22 | 68 | 8.0 | 16.1 | 0.00 | 0.08 | 0.08 | 57 | 1011.4 |
| 20260506224558 | 22 | 54 | 1.6 | 14.5 | 0.00 | 0.08 | 0.08 | 56 | 1011.3 |
| 20260506223056 | 22 | 54 | 8.0 | 14.5 | 0.00 | 0.08 | 0.08 | 58 | 1011.1 |
| 20260506221555 | 22 | 82 | 4.8 | 16.1 | 0.00 | 0.08 | 0.08 | 58 | 1011.1 |
| 20260506220106 | 22 | 46 | 3.2 | 14.5 | 0.00 | 0.08 | 0.08 | 59 | 1011.1 |
| 20260506214553 | 22 | 39 | 6.4 | 19.3 | 0.00 | 0.08 | 0.08 | 60 | 1011.1 |
| 20260506213055 | 21 | 74 | 3.2 | 14.5 | 0.00 | 0.08 | 0.08 | 62 | 1011.2 |
| 20260506211548 | 21 | 78 | 4.8 | 12.9 | 0.00 | 0.08 | 0.08 | 63 | 1011.6 |
| 20260506210048 | 20 | 41 | 8.0 | 16.1 | 0.00 | 0.08 | 0.08 | 65 | 1011.5 |
| 20260506204543 | 20 | 38 | 9.7 | 17.7 | 0.00 | 0.08 | 0.08 | 66 | 1011.4 |
| 20260506203119 | 19 | 51 | 11.3 | 16.1 | 0.00 | 0.08 | 0.08 | 69 | 1011.8 |
| 20260506201546 | 18 | 34 | 8.0 | 14.5 | 0.00 | 0.08 | 0.08 | 71 | 1012.0 |
| 20260506200047 | 17 | 49 | 8.0 | 16.1 | 0.00 | 0.08 | 0.08 | 72 | 1012.6 |
| 20260506194640 | 17 | 53 | 6.4 | 14.5 | 0.00 | 0.08 | 0.08 | 75 | 1012.6 |
| 20260506193039 | 16 | 84 | 6.4 | 16.1 | 0.00 | 0.08 | 0.08 | 76 | 1012.6 |
| 20260506191538 | 16 | 82 | 6.4 | 14.5 | 0.00 | 0.08 | 0.08 | 78 | 1012.9 |
| 20260506190046 | 15 | 73 | 6.4 | 14.5 | 0.00 | 0.08 | 0.08 | 79 | 1013.2 |
| 20260506184545 | 15 | 105 | 6.4 | 16.1 | 0.00 | 0.08 | 0.08 | 79 | 1013.0 |
| 20260506183036 | 15 | 106 | 8.0 | 17.7 | 0.00 | 0.08 | 0.08 | 78 | 1013.2 |
| 20260506181538 | 15 | 36 | 11.3 | 19.3 | 0.00 | 0.08 | 0.08 | 78 | 1013.3 |
| 20260506180037 | 15 | 38 | 9.7 | 17.7 | 0.00 | 0.08 | 0.08 | 79 | 1013.4 |
| 20260506174534 | 15 | 45 | 9.7 | 20.9 | 0.00 | 0.08 | 0.08 | 78 | 1013.4 |
| 20260506173044 | 15 | 45 | 9.7 | 19.3 | 0.00 | 0.08 | 0.08 | 78 | 1013.5 |
| 20260506171536 | 15 | 69 | 9.7 | 17.7 | 0.00 | 0.08 | 0.08 | 79 | 1013.5 |
| 20260506170031 | 14 | 47 | 9.7 | 20.9 | 0.00 | 0.08 | 0.08 | 80 | 1013.4 |
| 20260506164530 | 13 | 43 | 11.3 | 19.3 | 0.00 | 0.08 | 0.08 | 81 | 1013.1 |
| 20260506163047 | 13 | 61 | 12.9 | 20.9 | 0.00 | 0.08 | 0.08 | 82 | 1013.1 |
| 20260506161528 | 13 | 36 | 11.3 | 17.7 | 0.00 | 0.08 | 0.08 | 84 | 1012.8 |
| 20260506160025 | 13 | 30 | 9.7 | 19.3 | 0.00 | 0.08 | 0.08 | 85 | 1012.7 |
| 20260506154531 | 12 | 42 | 8.0 | 17.7 | 0.00 | 0.08 | 0.08 | 86 | 1012.6 |
| 20260506153027 | 12 | 38 | 6.4 | 14.5 | 0.00 | 0.08 | 0.08 | 88 | 1012.2 |
| 20260506151521 | 12 | 54 | 8.0 | 17.7 | 0.00 | 0.08 | 0.08 | 89 | 1012.3 |
| 20260506150019 | 11 | 29 | 11.3 | 24.1 | 0.00 | 0.08 | 0.08 | 90 | 1012.0 |
| 20260506144517 | 11 | 41 | 16.1 | 24.1 | 0.00 | 0.08 | 0.08 | 90 | 1011.5 |
| 20260506143015 | 11 | 5 | 9.7 | 25.7 | 0.03 | 0.08 | 0.08 | 90 | 1012.0 |
| 20260506141513 | 11 | 43 | 17.7 | 25.7 | 0.05 | 0.08 | 0.08 | 90 | 1011.4 |
| 20260506140018 | 11 | 49 | 9.7 | 20.9 | 0.05 | 0.08 | 0.08 | 90 | 1011.0 |